Time;durP1;ratioP1;P1;durP2;ratioP2;P2;SDS_P1;SDS_P2;PMS_P1;PMS_P2;Temp;Humidity;BMP_temperature;BMP_pressure;BME280_temperature;BME280_humidity;BME280_pressure;Samples;Min_cycle;Max_cycle;Signal;HPM_P1;HPM_P2
2021/12/01 00:01:53;;;;;;;1.93;1.80;;;4.70;99.90;;;;;;5093392;28;20210;-85
2021/12/01 00:04:19;;;;;;;3.23;2.00;;;4.70;99.90;;;;;;5093746;28;20191;-84
2021/12/01 00:06:45;;;;;;;4.90;2.00;;;4.80;99.90;;;;;;5070188;28;20193;-84
2021/12/01 00:09:10;;;;;;;2.77;2.00;;;4.80;99.90;;;;;;5094584;28;20842;-85
2021/12/01 00:11:36;;;;;;;2.13;1.90;;;4.80;99.90;;;;;;5089208;28;20579;-84
2021/12/01 00:14:02;;;;;;;3.50;1.93;;;4.80;99.90;;;;;;5088998;28;20287;-85
2021/12/01 00:16:27;;;;;;;1.97;1.80;;;4.80;99.90;;;;;;5090877;28;20603;-84
2021/12/01 00:18:53;;;;;;;2.40;2.10;;;4.80;99.90;;;;;;5092111;28;20687;-84
2021/12/01 00:21:19;;;;;;;2.13;1.90;;;4.90;99.90;;;;;;5094081;28;20260;-84
2021/12/01 00:23:45;;;;;;;1.83;1.67;;;4.90;99.90;;;;;;5065496;28;20653;-85
2021/12/01 00:26:10;;;;;;;3.57;1.90;;;4.90;99.90;;;;;;5080647;28;20206;-84
2021/12/01 00:28:36;;;;;;;2.10;1.90;;;4.90;99.90;;;;;;5093529;28;20227;-84
2021/12/01 00:31:03;;;;;;;3.60;1.93;;;4.80;99.90;;;;;;5090042;28;20665;-84
2021/12/01 00:33:28;;;;;;;3.97;1.90;;;4.90;99.90;;;;;;5092709;28;20218;-84
2021/12/01 00:35:56;;;;;;;3.27;1.80;;;4.90;99.90;;;;;;5093391;28;20203;-85
2021/12/01 00:38:23;;;;;;;1.83;1.70;;;4.90;99.90;;;;;;5089100;28;20202;-85
2021/12/01 00:40:50;;;;;;;1.87;1.77;;;4.90;99.90;;;;;;5094667;28;20199;-84
2021/12/01 00:43:17;;;;;;;2.00;1.77;;;5.00;99.90;;;;;;5094319;28;20282;-85
2021/12/01 00:45:57;;;;;;;3.33;2.07;;;4.90;99.90;;;;;;5091671;28;20187;-84
2021/12/01 00:48:23;;;;;;;2.37;2.03;;;4.90;99.50;;;;;;5091159;28;20277;-84
2021/12/01 00:50:50;;;;;;;2.13;1.87;;;5.00;99.20;;;;;;5076910;28;20240;-85
2021/12/01 00:53:16;;;;;;;2.93;2.20;;;5.10;99.20;;;;;;5091327;28;20217;-84
2021/12/01 00:55:43;;;;;;;3.83;2.60;;;5.00;99.50;;;;;;5091272;28;20277;-84
2021/12/01 00:58:12;;;;;;;2.00;1.90;;;5.00;99.80;;;;;;5100135;28;20191;-85
2021/12/01 01:00:38;;;;;;;3.53;2.00;;;5.00;99.00;;;;;;5110557;28;20218;-85
2021/12/01 01:03:04;;;;;;;4.63;2.20;;;5.00;99.30;;;;;;5098924;28;20202;-85
2021/12/01 01:05:30;;;;;;;4.40;2.20;;;4.90;99.90;;;;;;5093154;28;20194;-84
2021/12/01 01:07:56;;;;;;;3.00;2.40;;;4.90;99.50;;;;;;5087407;28;20190;-85
2021/12/01 01:18:25;;;;;;;3.23;2.60;;;4.90;99.50;;;;;;5093111;28;20202;-84
2021/12/01 01:20:51;;;;;;;2.37;2.10;;;4.80;99.90;;;;;;5088555;28;20222;-84
2021/12/01 01:23:16;;;;;;;4.47;2.67;;;4.90;99.60;;;;;;5074095;28;20719;-84
2021/12/01 01:25:42;;;;;;;2.70;2.00;;;4.90;99.50;;;;;;5091123;28;20458;-84
2021/12/01 01:28:08;;;;;;;2.17;1.97;;;5.00;99.20;;;;;;5074665;28;20210;-84
2021/12/01 01:30:33;;;;;;;2.50;1.90;;;5.00;98.80;;;;;;5091820;28;20214;-84
2021/12/01 01:33:00;;;;;;;2.13;1.93;;;5.00;98.60;;;;;;5092243;28;20210;-84
2021/12/01 01:35:26;;;;;;;2.57;2.07;;;5.00;99.10;;;;;;5088976;28;20218;-84
2021/12/01 01:37:51;;;;;;;2.53;2.27;;;4.90;99.90;;;;;;5089083;28;20596;-84
2021/12/01 01:40:17;;;;;;;2.47;2.13;;;5.00;99.30;;;;;;5092485;28;20194;-85
2021/12/01 01:42:43;;;;;;;2.53;2.13;;;5.00;99.10;;;;;;5091728;28;20222;-85
2021/12/01 01:45:10;;;;;;;2.40;2.20;;;5.00;99.90;;;;;;5090428;28;20203;-85
2021/12/01 01:47:36;;;;;;;2.50;2.30;;;5.00;99.60;;;;;;5092314;28;20206;-84
2021/12/01 01:52:34;;;;;;;2.80;1.90;;;5.00;99.30;;;;;;5091531;28;20223;-85
2021/12/01 01:55:00;;;;;;;2.60;2.07;;;5.00;99.90;;;;;;5091540;28;20403;-84
2021/12/01 01:57:25;;;;;;;2.10;1.90;;;5.00;99.60;;;;;;5068280;28;20199;-85
2021/12/01 01:59:51;;;;;;;2.47;1.70;;;5.10;99.50;;;;;;5087435;28;20257;-84
2021/12/01 02:02:18;;;;;;;1.77;1.67;;;5.10;99.40;;;;;;5078198;28;20215;-84
2021/12/01 02:04:44;;;;;;;1.90;1.70;;;5.10;99.40;;;;;;5102138;28;20303;-84
2021/12/01 02:07:09;;;;;;;1.73;1.63;;;5.10;99.60;;;;;;5092452;28;20777;-84
2021/12/01 02:09:35;;;;;;;2.70;1.90;;;5.10;99.20;;;;;;5087687;28;20222;-84
2021/12/01 02:12:02;;;;;;;2.03;1.73;;;5.10;99.20;;;;;;5093378;28;20282;-84
2021/12/01 02:14:29;;;;;;;1.73;1.63;;;5.10;99.50;;;;;;5089239;28;20214;-84
2021/12/01 02:16:57;;;;;;;2.03;1.70;;;5.20;98.30;;;;;;5086883;28;20281;-84
2021/12/01 02:19:22;;;;;;;1.90;1.70;;;5.30;98.90;;;;;;5091545;28;20319;-84
2021/12/01 02:21:48;;;;;;;1.83;1.60;;;5.30;98.80;;;;;;5092317;28;20203;-84
2021/12/01 02:24:16;;;;;;;2.50;1.70;;;5.30;99.10;;;;;;5090674;28;20191;-84
2021/12/01 02:26:46;;;;;;;4.37;2.17;;;5.40;98.20;;;;;;5090919;28;20247;-85
2021/12/01 02:29:15;;;;;;;1.50;1.40;;;5.30;98.30;;;;;;5088152;28;20673;-84
2021/12/01 02:31:43;;;;;;;2.33;1.60;;;5.40;98.90;;;;;;5090677;28;20260;-85
2021/12/01 02:34:16;;;;;;;3.20;1.97;;;5.30;98.50;;;;;;5087112;28;20199;-85
2021/12/01 02:36:46;;;;;;;2.10;1.90;;;5.30;99.20;;;;;;5089653;28;20228;-84
2021/12/01 02:39:15;;;;;;;3.03;1.97;;;5.40;98.50;;;;;;5090289;28;20187;-85
2021/12/01 02:41:42;;;;;;;2.10;1.83;;;5.40;98.20;;;;;;5090166;28;20218;-85
2021/12/01 02:44:09;;;;;;;1.57;1.47;;;5.40;97.80;;;;;;5089523;28;20194;-85
2021/12/01 02:46:36;;;;;;;2.23;2.00;;;5.40;97.40;;;;;;5093149;28;20274;-84
2021/12/01 02:49:02;;;;;;;2.00;1.80;;;5.40;97.80;;;;;;5093174;28;20290;-84
2021/12/01 02:51:30;;;;;;;2.37;1.90;;;5.40;97.60;;;;;;5072329;28;20292;-85
2021/12/01 02:53:56;;;;;;;4.57;2.33;;;5.30;98.20;;;;;;5087445;28;20245;-85
2021/12/01 02:56:22;;;;;;;1.83;1.70;;;5.40;98.80;;;;;;5089922;28;20187;-84
2021/12/01 02:58:51;;;;;;;4.37;2.30;;;5.40;98.20;;;;;;5072657;28;20258;-85
2021/12/01 03:01:20;;;;;;;2.97;1.90;;;5.40;98.00;;;;;;5087664;28;20283;-85
2021/12/01 03:03:46;;;;;;;2.17;1.70;;;5.50;98.20;;;;;;5092249;28;20598;-85
2021/12/01 03:06:12;;;;;;;2.50;1.73;;;5.40;97.90;;;;;;5086378;28;20191;-85
2021/12/01 03:08:41;;;;;;;2.67;1.60;;;5.50;98.10;;;;;;5089592;28;20186;-84
2021/12/01 03:11:07;;;;;;;2.13;1.50;;;5.60;96.50;;;;;;5073987;28;20266;-85
2021/12/01 03:13:33;;;;;;;1.83;1.73;;;5.60;96.80;;;;;;5091133;28;20242;-85
2021/12/01 03:15:59;;;;;;;3.00;2.10;;;5.60;98.90;;;;;;5091175;28;20669;-85
2021/12/01 03:18:25;;;;;;;1.97;1.87;;;5.60;97.80;;;;;;5089222;28;20228;-85
2021/12/01 03:20:52;;;;;;;1.77;1.67;;;5.60;97.00;;;;;;5089720;28;20290;-85
2021/12/01 03:23:18;;;;;;;2.80;1.83;;;5.60;97.40;;;;;;5086979;28;20195;-85
2021/12/01 03:25:44;;;;;;;3.30;2.00;;;5.70;97.60;;;;;;5086555;28;20232;-85
2021/12/01 03:28:11;;;;;;;2.27;1.70;;;5.70;97.80;;;;;;5091384;28;20187;-85
2021/12/01 03:30:38;;;;;;;2.53;2.13;;;5.60;97.20;;;;;;5087779;28;20210;-85
2021/12/01 03:33:09;;;;;;;1.70;1.43;;;5.70;97.40;;;;;;5095562;28;20214;-84
2021/12/01 03:35:36;;;;;;;2.10;1.70;;;5.70;97.40;;;;;;5097949;28;20175;-85
2021/12/01 03:38:02;;;;;;;2.20;1.73;;;5.70;97.40;;;;;;5090242;28;20198;-85
2021/12/01 03:40:28;;;;;;;2.73;1.80;;;5.70;97.40;;;;;;5104455;28;20262;-85
2021/12/01 03:42:54;;;;;;;1.80;1.60;;;5.70;97.60;;;;;;5106730;28;20187;-85
2021/12/01 03:45:19;;;;;;;2.23;1.90;;;5.70;97.60;;;;;;5074138;28;20202;-85
2021/12/01 03:47:46;;;;;;;2.00;1.73;;;5.70;98.00;;;;;;5100357;28;20179;-86
2021/12/01 03:50:12;;;;;;;1.50;1.40;;;5.80;98.00;;;;;;5116393;28;20195;-86
2021/12/01 03:52:39;;;;;;;3.63;2.00;;;5.80;97.60;;;;;;5105070;28;20230;-84
2021/12/01 03:55:06;;;;;;;1.63;1.47;;;5.70;98.40;;;;;;5092146;28;20340;-85
2021/12/01 03:57:32;;;;;;;2.27;1.70;;;5.80;98.30;;;;;;5092225;28;20209;-85
2021/12/01 03:59:58;;;;;;;2.07;1.70;;;5.80;97.30;;;;;;5070521;28;20195;-85
2021/12/01 04:02:24;;;;;;;1.70;1.60;;;5.90;97.60;;;;;;5094391;28;20210;-85
2021/12/01 04:04:50;;;;;;;2.67;1.47;;;5.90;97.30;;;;;;5091769;28;20282;-85
2021/12/01 04:07:16;;;;;;;3.00;1.80;;;6.00;96.50;;;;;;5077474;28;20187;-85
2021/12/01 04:09:45;;;;;;;1.80;1.60;;;6.10;96.70;;;;;;5095567;28;20704;-85
2021/12/01 04:12:11;;;;;;;2.00;1.80;;;6.10;96.90;;;;;;5093434;28;20218;-85
2021/12/01 04:14:38;;;;;;;1.40;1.30;;;6.10;96.30;;;;;;5093306;28;20769;-86
2021/12/01 04:17:04;;;;;;;1.43;1.33;;;6.10;96.30;;;;;;5094477;28;20191;-86
2021/12/01 04:19:30;;;;;;;1.57;1.20;;;6.10;95.70;;;;;;5092507;28;20191;-86
2021/12/01 04:21:56;;;;;;;1.53;1.33;;;6.10;96.40;;;;;;5092050;28;20218;-87
2021/12/01 04:24:22;;;;;;;1.97;1.40;;;6.10;96.30;;;;;;5070615;28;20195;-83
2021/12/01 04:26:48;;;;;;;1.90;1.20;;;6.20;95.90;;;;;;5070307;28;20195;-86
2021/12/01 04:29:14;;;;;;;1.50;1.40;;;6.10;95.80;;;;;;5093976;28;20721;-86
2021/12/01 04:31:40;;;;;;;1.57;1.33;;;6.10;96.20;;;;;;5093967;28;20298;-86
2021/12/01 04:34:07;;;;;;;3.37;1.40;;;6.20;95.60;;;;;;5076541;28;20256;-86
2021/12/01 04:36:35;;;;;;;1.27;1.17;;;6.30;95.40;;;;;;5091100;28;20655;-86
2021/12/01 04:39:04;;;;;;;1.40;1.20;;;6.30;94.80;;;;;;5076972;28;20183;-83
2021/12/01 04:41:36;;;;;;;1.53;1.27;;;6.30;95.00;;;;;;5074563;28;20211;-86
2021/12/01 04:44:08;;;;;;;1.50;1.40;;;6.30;94.90;;;;;;5094868;28;20293;-86
2021/12/01 04:46:40;;;;;;;1.30;1.20;;;6.30;95.00;;;;;;5094235;28;20195;-86
2021/12/01 04:49:07;;;;;;;1.17;1.13;;;6.40;94.50;;;;;;5094179;28;20198;-86
2021/12/01 04:51:33;;;;;;;1.37;1.27;;;6.30;95.20;;;;;;5093140;28;20739;-86
2021/12/01 04:53:59;;;;;;;1.83;1.70;;;6.30;94.40;;;;;;5091031;28;20215;-86
2021/12/01 04:56:25;;;;;;;1.77;1.50;;;6.40;93.80;;;;;;5066043;28;20252;-86
2021/12/01 04:58:50;;;;;;;1.43;1.30;;;6.40;94.40;;;;;;5094841;28;20214;-86
2021/12/01 05:01:17;;;;;;;2.20;1.57;;;6.40;94.60;;;;;;5094681;28;20253;-86
2021/12/01 05:03:43;;;;;;;1.20;1.10;;;6.40;94.40;;;;;;5092243;28;20194;-87
2021/12/01 05:06:12;;;;;;;1.87;1.20;;;6.40;94.70;;;;;;5095526;28;20205;-86
2021/12/01 05:08:38;;;;;;;1.47;1.37;;;6.40;94.20;;;;;;5092424;28;20660;-83
2021/12/01 05:11:04;;;;;;;1.50;1.27;;;6.30;95.10;;;;;;5096601;28;20287;-84
2021/12/01 05:13:30;;;;;;;1.53;1.20;;;6.30;96.20;;;;;;5100168;28;20203;-84
2021/12/01 05:15:56;;;;;;;1.60;1.10;;;6.30;95.40;;;;;;5072096;28;20557;-84
2021/12/01 05:18:22;;;;;;;1.70;1.50;;;6.30;95.70;;;;;;5074764;28;20206;-84
2021/12/01 05:20:48;;;;;;;1.80;1.70;;;6.20;95.80;;;;;;5091575;28;20221;-85
2021/12/01 05:23:15;;;;;;;1.23;1.13;;;6.30;94.80;;;;;;5093267;28;20218;-85
2021/12/01 05:25:45;;;;;;;1.03;1.03;;;6.30;94.70;;;;;;5089776;28;20235;-85
2021/12/01 05:28:11;;;;;;;1.43;1.10;;;6.40;94.40;;;;;;5089412;28;20226;-87
2021/12/01 05:30:37;;;;;;;0.97;0.97;;;6.50;94.30;;;;;;5094991;28;20202;-85
2021/12/01 05:33:08;;;;;;;1.87;1.33;;;6.50;93.50;;;;;;5076722;28;20228;-85
2021/12/01 05:35:35;;;;;;;1.07;1.03;;;6.50;93.90;;;;;;5069930;28;20199;-84
2021/12/01 05:38:02;;;;;;;2.07;1.37;;;6.50;94.00;;;;;;5093509;28;20202;-85
2021/12/01 05:40:28;;;;;;;1.00;1.00;;;6.50;93.90;;;;;;5093665;28;20274;-85
2021/12/01 05:42:54;;;;;;;1.47;1.20;;;6.60;93.60;;;;;;5071979;28;20226;-85
2021/12/01 05:45:19;;;;;;;2.63;1.30;;;6.60;93.10;;;;;;5091603;28;20202;-85
2021/12/01 05:47:45;;;;;;;1.57;1.20;;;6.60;93.70;;;;;;5090674;28;20206;-85
2021/12/01 05:50:11;;;;;;;1.43;1.30;;;6.70;93.20;;;;;;5090693;28;20186;-85
2021/12/01 05:52:37;;;;;;;1.37;1.27;;;6.70;94.20;;;;;;5090854;28;20574;-85
2021/12/01 05:55:03;;;;;;;3.50;1.33;;;6.70;93.70;;;;;;5075501;28;20193;-85
2021/12/01 05:57:29;;;;;;;1.63;1.50;;;6.70;93.80;;;;;;5072468;28;20187;-85
2021/12/01 05:59:55;;;;;;;1.10;1.00;;;6.70;93.40;;;;;;5091824;28;20577;-84
2021/12/01 06:02:20;;;;;;;1.67;1.20;;;6.70;93.30;;;;;;5095128;28;20202;-85
2021/12/01 06:04:48;;;;;;;1.80;1.20;;;6.70;93.80;;;;;;5089989;28;20197;-85
2021/12/01 06:07:14;;;;;;;1.10;1.00;;;6.80;93.50;;;;;;5087706;28;20183;-85
2021/12/01 06:09:39;;;;;;;1.43;1.17;;;6.80;93.00;;;;;;5094162;28;20354;-85
2021/12/01 06:12:06;;;;;;;1.20;1.10;;;6.80;92.80;;;;;;5071430;28;20212;-85
2021/12/01 06:14:33;;;;;;;1.10;1.10;;;6.80;92.90;;;;;;5067890;28;20210;-85
2021/12/01 06:16:59;;;;;;;1.37;1.33;;;7.00;92.60;;;;;;5089315;28;20240;-85
2021/12/01 06:19:25;;;;;;;1.30;1.20;;;6.80;93.20;;;;;;5079582;28;20206;-87
2021/12/01 06:21:51;;;;;;;2.50;1.30;;;6.80;93.90;;;;;;5111032;28;20226;-86
2021/12/01 06:24:16;;;;;;;1.77;1.17;;;6.90;93.60;;;;;;5053206;28;20547;-85
2021/12/01 06:26:42;;;;;;;1.43;1.20;;;6.90;92.60;;;;;;5099414;28;20226;-85
2021/12/01 06:29:08;;;;;;;1.13;1.03;;;7.00;92.30;;;;;;5085880;28;20229;-86
2021/12/01 06:31:35;;;;;;;1.27;1.20;;;7.00;92.30;;;;;;5105957;28;20199;-84
2021/12/01 06:34:00;;;;;;;2.57;1.10;;;6.90;92.50;;;;;;5091899;28;20634;-85
2021/12/01 06:36:27;;;;;;;1.33;1.23;;;7.00;92.40;;;;;;5086062;28;20187;-85
2021/12/01 06:38:53;;;;;;;1.10;1.10;;;7.10;92.10;;;;;;5091640;28;20199;-84
2021/12/01 06:41:18;;;;;;;1.40;1.30;;;7.00;92.60;;;;;;5091014;28;20555;-85
2021/12/01 06:43:44;;;;;;;2.00;1.00;;;7.10;92.20;;;;;;5093897;28;20190;-85
2021/12/01 06:46:10;;;;;;;2.17;1.20;;;7.20;91.40;;;;;;5071588;28;20228;-85
2021/12/01 06:48:35;;;;;;;1.97;1.20;;;7.20;92.20;;;;;;5091534;28;20277;-84
2021/12/01 06:51:01;;;;;;;1.60;1.17;;;7.20;92.30;;;;;;5096203;28;20215;-85
2021/12/01 06:53:27;;;;;;;1.10;1.10;;;7.10;92.80;;;;;;5091531;28;20210;-85
2021/12/01 06:55:55;;;;;;;1.20;1.20;;;7.20;93.40;;;;;;5092014;28;20195;-85
2021/12/01 06:58:21;;;;;;;1.10;1.10;;;7.10;93.60;;;;;;5070404;28;20195;-85
2021/12/01 07:00:47;;;;;;;1.00;1.00;;;7.10;94.00;;;;;;5089521;28;20263;-85
2021/12/01 07:03:13;;;;;;;1.23;1.10;;;7.00;94.80;;;;;;5089106;28;20279;-85
2021/12/01 07:05:38;;;;;;;2.07;1.13;;;7.00;95.30;;;;;;5089806;28;20202;-85
2021/12/01 07:08:05;;;;;;;1.50;1.20;;;7.00;95.80;;;;;;5091017;28;20606;-85
2021/12/01 07:10:30;;;;;;;1.13;1.00;;;7.00;95.70;;;;;;5087749;28;20620;-85
2021/12/01 07:12:56;;;;;;;2.97;1.10;;;7.10;94.80;;;;;;5092815;28;20877;-85
2021/12/01 07:15:22;;;;;;;0.80;0.80;;;7.00;94.80;;;;;;5091772;28;20508;-85
2021/12/01 07:17:48;;;;;;;1.30;1.20;;;7.00;94.60;;;;;;5081268;28;20191;-85
2021/12/01 07:20:14;;;;;;;1.10;0.90;;;7.10;93.40;;;;;;5102757;28;20265;-84
2021/12/01 07:22:41;;;;;;;1.80;1.10;;;7.10;93.50;;;;;;5074515;28;20298;-85
2021/12/01 07:25:08;;;;;;;1.40;1.30;;;7.20;92.20;;;;;;5078089;28;20187;-85
2021/12/01 07:27:33;;;;;;;1.00;1.00;;;7.20;92.40;;;;;;5092824;28;20243;-86
2021/12/01 07:29:59;;;;;;;1.10;1.10;;;7.20;92.50;;;;;;5077187;28;20636;-85
2021/12/01 07:32:25;;;;;;;0.90;0.90;;;7.30;91.80;;;;;;5096878;28;20214;-84
2021/12/01 07:34:52;;;;;;;1.33;0.80;;;7.40;91.20;;;;;;5100296;28;20215;-84
2021/12/01 07:37:19;;;;;;;1.17;0.90;;;7.30;92.30;;;;;;5093863;28;20252;-85
2021/12/01 07:39:45;;;;;;;1.00;1.00;;;7.30;91.80;;;;;;5091993;28;20187;-85
2021/12/01 07:42:13;;;;;;;1.10;1.10;;;7.30;91.90;;;;;;5073510;28;20387;-85
2021/12/01 07:44:39;;;;;;;1.03;1.03;;;7.40;91.10;;;;;;5090079;28;20649;-86
2021/12/01 07:47:06;;;;;;;0.97;0.93;;;7.50;91.10;;;;;;5091952;28;20252;-85
2021/12/01 07:49:32;;;;;;;1.53;1.00;;;7.50;90.30;;;;;;5069080;28;20191;-85
2021/12/01 07:51:58;;;;;;;0.93;0.93;;;7.60;89.80;;;;;;5068905;28;20220;-85
2021/12/01 07:54:24;;;;;;;0.90;0.90;;;7.70;89.90;;;;;;5090329;28;20218;-84
2021/12/01 07:56:50;;;;;;;0.97;0.97;;;7.80;88.90;;;;;;5091249;28;20191;-85
2021/12/01 07:59:16;;;;;;;1.20;0.90;;;7.80;89.20;;;;;;5090039;28;20195;-85
2021/12/01 08:01:43;;;;;;;1.03;1.03;;;7.80;89.90;;;;;;5091544;28;20276;-85
2021/12/01 08:04:10;;;;;;;0.73;0.73;;;7.90;90.20;;;;;;5090817;28;20865;-85
2021/12/01 08:06:35;;;;;;;0.70;0.70;;;7.80;90.90;;;;;;5088341;28;20193;-85
2021/12/01 08:09:03;;;;;;;0.80;0.80;;;7.80;90.90;;;;;;5089230;28;20199;-86
2021/12/01 08:11:28;;;;;;;1.00;0.90;;;7.80;91.30;;;;;;5094366;28;20217;-85
2021/12/01 08:13:54;;;;;;;1.23;1.00;;;7.80;92.20;;;;;;5085363;28;20223;-86
2021/12/01 08:16:20;;;;;;;0.90;0.90;;;7.90;91.60;;;;;;5089390;28;20266;-86
2021/12/01 08:18:51;;;;;;;0.90;0.90;;;7.80;91.50;;;;;;5089641;28;20192;-86
2021/12/01 08:21:23;;;;;;;1.30;1.00;;;7.90;91.50;;;;;;5073012;28;20226;-86
2021/12/01 08:23:50;;;;;;;1.03;1.03;;;7.80;91.70;;;;;;5073214;28;20240;-86
2021/12/01 08:26:15;;;;;;;2.20;0.90;;;7.80;93.00;;;;;;5091544;28;20234;-85
2021/12/01 08:28:46;;;;;;;1.13;0.80;;;7.80;93.40;;;;;;5094370;28;20187;-85
2021/12/01 08:31:13;;;;;;;0.90;0.90;;;7.80;93.40;;;;;;5070611;28;20304;-86
2021/12/01 08:33:40;;;;;;;0.73;0.73;;;7.80;92.90;;;;;;5085988;28;20733;-86
2021/12/01 08:36:06;;;;;;;0.90;0.90;;;7.80;91.70;;;;;;5092042;28;20188;-86
2021/12/01 08:38:32;;;;;;;0.83;0.83;;;7.90;91.60;;;;;;5089152;28;20251;-86
2021/12/01 08:40:59;;;;;;;0.80;0.80;;;7.90;91.90;;;;;;5092700;28;20230;-86
2021/12/01 08:43:25;;;;;;;0.97;0.97;;;7.90;90.90;;;;;;5095304;28;20602;-86
2021/12/01 08:45:50;;;;;;;1.17;0.80;;;8.00;90.40;;;;;;5083986;28;20358;-85
2021/12/01 08:48:16;;;;;;;1.00;1.00;;;8.10;90.10;;;;;;5083738;28;20199;-86
2021/12/01 08:50:42;;;;;;;1.10;1.10;;;8.00;90.20;;;;;;5085616;28;20222;-86
2021/12/01 08:53:08;;;;;;;0.87;0.87;;;8.10;89.90;;;;;;5068429;28;20226;-86
2021/12/01 08:55:34;;;;;;;0.90;0.90;;;8.10;89.40;;;;;;5088497;28;20183;-85
2021/12/01 08:58:01;;;;;;;1.00;1.00;;;8.10;89.00;;;;;;5062044;28;20184;-87
2021/12/01 09:00:28;;;;;;;1.23;1.00;;;8.30;88.40;;;;;;5101598;28;20182;-85
2021/12/01 09:02:53;;;;;;;0.80;0.80;;;8.20;87.90;;;;;;5106915;28;20263;-86
2021/12/01 09:05:19;;;;;;;1.00;1.00;;;8.30;88.00;;;;;;5085831;28;20867;-86
2021/12/01 09:07:45;;;;;;;0.77;0.77;;;8.30;87.50;;;;;;5091927;28;20199;-85
2021/12/01 09:10:10;;;;;;;1.20;1.10;;;8.30;87.60;;;;;;5109187;28;20262;-86
2021/12/01 09:12:38;;;;;;;0.50;0.50;;;8.40;87.30;;;;;;5090438;28;20709;-85
2021/12/01 09:15:04;;;;;;;0.80;0.80;;;8.40;86.60;;;;;;5091551;28;20194;-86
2021/12/01 09:17:30;;;;;;;0.80;0.80;;;8.40;86.90;;;;;;5089472;28;20187;-85
2021/12/01 09:19:55;;;;;;;1.10;1.10;;;8.50;86.30;;;;;;5086901;28;20294;-86
2021/12/01 09:22:21;;;;;;;1.03;1.00;;;8.50;87.10;;;;;;5087627;28;20222;-85
2021/12/01 09:24:48;;;;;;;1.33;0.90;;;8.50;87.30;;;;;;5087531;28;20240;-86
2021/12/01 09:27:15;;;;;;;1.20;1.10;;;8.50;86.70;;;;;;5090513;28;20275;-86
2021/12/01 09:29:41;;;;;;;1.20;1.10;;;8.50;87.10;;;;;;5088563;28;20207;-86
2021/12/01 09:32:07;;;;;;;1.10;1.07;;;8.50;86.90;;;;;;5088532;28;20223;-86
2021/12/01 09:34:33;;;;;;;1.17;1.10;;;8.50;86.60;;;;;;5071738;28;20249;-86
2021/12/01 09:36:59;;;;;;;1.27;1.10;;;8.60;85.90;;;;;;5085456;28;20211;-86
2021/12/01 09:39:25;;;;;;;1.10;1.10;;;8.60;86.50;;;;;;5088141;28;20195;-86
2021/12/01 09:41:54;;;;;;;1.80;0.93;;;8.60;86.60;;;;;;5090531;28;20727;-86
2021/12/01 09:44:20;;;;;;;0.97;0.90;;;8.60;87.40;;;;;;5086139;28;20660;-86
2021/12/01 09:46:46;;;;;;;2.63;1.00;;;8.50;87.10;;;;;;5085658;28;20191;-86
2021/12/01 09:49:11;;;;;;;1.80;1.00;;;8.60;86.90;;;;;;5083903;28;20281;-86
2021/12/01 09:51:37;;;;;;;0.83;0.83;;;8.60;87.40;;;;;;5084316;28;20715;-87
2021/12/01 09:54:04;;;;;;;0.87;0.87;;;8.60;87.30;;;;;;5086971;28;20214;-86
2021/12/01 09:56:31;;;;;;;1.03;1.00;;;8.60;87.80;;;;;;5072119;28;20206;-86
2021/12/01 09:58:58;;;;;;;1.20;0.90;;;8.60;88.50;;;;;;5094772;28;20202;-86
2021/12/01 10:01:26;;;;;;;0.90;0.90;;;8.50;90.50;;;;;;5081426;28;20539;-86
2021/12/01 10:03:52;;;;;;;1.17;0.90;;;8.50;90.70;;;;;;5082647;28;20268;-86
2021/12/01 10:06:20;;;;;;;1.00;0.90;;;8.50;91.90;;;;;;5083952;28;20274;-86
2021/12/01 10:08:53;;;;;;;0.80;0.80;;;8.50;92.80;;;;;;5085953;28;20704;-86
2021/12/01 10:11:22;;;;;;;1.53;0.90;;;8.40;93.30;;;;;;5082230;28;20272;-86
2021/12/01 10:13:57;;;;;;;1.87;1.07;;;8.30;94.90;;;;;;5084923;28;20234;-86
2021/12/01 10:16:28;;;;;;;1.13;1.03;;;8.30;96.90;;;;;;5086847;28;20197;-86
2021/12/01 10:19:00;;;;;;;0.97;0.97;;;8.20;98.10;;;;;;5087159;28;20190;-85
2021/12/01 10:21:43;;;;;;;1.30;1.20;;;8.20;96.60;;;;;;5084081;28;20569;-85
2021/12/01 10:24:09;;;;;;;1.20;1.07;;;8.20;98.10;;;;;;5069032;28;20187;-85
2021/12/01 10:26:44;;;;;;;0.83;0.83;;;8.10;98.20;;;;;;5083478;28;20203;-86
2021/12/01 10:29:17;;;;;;;1.20;1.10;;;8.10;98.10;;;;;;5085478;28;20206;-86
2021/12/01 10:31:52;;;;;;;1.53;1.07;;;8.10;98.80;;;;;;5086388;28;20241;-85
2021/12/01 10:34:20;;;;;;;0.90;0.90;;;8.10;98.90;;;;;;5089556;28;20198;-85
2021/12/01 10:36:49;;;;;;;0.83;0.83;;;8.10;98.50;;;;;;5086706;28;20199;-85
2021/12/01 10:39:15;;;;;;;0.80;0.80;;;8.20;98.00;;;;;;5088752;28;20195;-85
2021/12/01 10:41:43;;;;;;;1.07;1.07;;;8.30;97.80;;;;;;5093563;28;20210;-85
2021/12/01 10:44:14;;;;;;;1.10;1.00;;;8.30;98.60;;;;;;5086107;28;20201;-85
2021/12/01 10:47:08;;;;;;;0.90;0.90;;;8.30;97.60;;;;;;5089533;28;20538;-85
2021/12/01 10:49:40;;;;;;;1.07;0.90;;;8.30;97.20;;;;;;5083923;28;20191;-85
2021/12/01 10:52:26;;;;;;;3.20;1.10;;;8.30;99.40;;;;;;5074935;28;20213;-85
2021/12/01 10:55:13;;;;;;;1.20;1.20;;;8.30;99.90;;;;;;5087853;28;20722;-85
2021/12/01 10:57:54;;;;;;;1.10;1.10;;;8.20;99.90;;;;;;5074006;28;20182;-86
2021/12/01 11:00:26;;;;;;;1.30;1.20;;;8.10;99.90;;;;;;5091705;28;20228;-84
2021/12/01 11:02:52;;;;;;;0.90;0.90;;;8.10;99.90;;;;;;5096669;28;20673;-84
2021/12/01 11:05:27;;;;;;;1.00;1.00;;;8.10;99.90;;;;;;5093670;28;20195;-84
2021/12/01 11:07:54;;;;;;;0.77;0.67;;;8.10;99.90;;;;;;5086191;28;20214;-84
2021/12/01 11:10:23;;;;;;;2.20;1.20;;;8.10;99.90;;;;;;5087431;28;20199;-84
2021/12/01 11:13:00;;;;;;;1.00;1.00;;;8.10;99.90;;;;;;5092264;28;20199;-84
2021/12/01 11:15:29;;;;;;;0.80;0.80;;;8.10;99.90;;;;;;5067973;28;20285;-85
2021/12/01 11:17:55;;;;;;;2.03;1.13;;;8.10;99.90;;;;;;5090043;28;20355;-85
2021/12/01 11:20:50;;;;;;;2.77;1.00;;;8.10;99.90;;;;;;5089257;28;20190;-85
2021/12/01 11:23:22;;;;;;;1.60;1.00;;;8.20;99.90;;;;;;5085888;28;20183;-84
2021/12/01 11:25:54;;;;;;;3.57;1.10;;;8.20;99.90;;;;;;5084777;28;20255;-84
2021/12/01 11:28:23;;;;;;;1.20;1.10;;;8.20;99.90;;;;;;5090110;28;20195;-84
2021/12/01 11:30:52;;;;;;;1.40;1.30;;;8.30;99.90;;;;;;5092026;28;20227;-83
2021/12/01 11:33:20;;;;;;;1.20;1.10;;;8.30;99.90;;;;;;5092130;28;20693;-85
2021/12/01 11:35:49;;;;;;;1.00;1.00;;;8.30;99.90;;;;;;5088796;28;20207;-84
2021/12/01 11:38:16;;;;;;;2.23;1.17;;;8.30;99.90;;;;;;5088145;28;20210;-85
2021/12/01 11:40:42;;;;;;;2.90;1.40;;;8.40;99.90;;;;;;5090981;28;20202;-85
2021/12/01 11:43:10;;;;;;;1.00;1.00;;;8.40;99.90;;;;;;5089417;28;20187;-85
2021/12/01 11:45:39;;;;;;;1.10;1.10;;;8.30;99.90;;;;;;5067297;28;20190;-85
2021/12/01 11:48:20;;;;;;;1.60;1.30;;;8.40;99.90;;;;;;5099153;28;20171;-84
2021/12/01 11:51:12;;;;;;;1.40;1.30;;;8.30;99.90;;;;;;5105151;28;20527;-84
2021/12/01 11:53:41;;;;;;;1.30;1.17;;;8.40;99.90;;;;;;5086769;28;20222;-86
2021/12/01 11:56:20;;;;;;;1.23;1.20;;;8.40;99.90;;;;;;5092820;28;20268;-84
2021/12/01 11:59:04;;;;;;;1.37;1.00;;;8.50;99.90;;;;;;5092775;28;20187;-84
2021/12/01 12:01:30;;;;;;;1.87;1.13;;;8.50;99.90;;;;;;5094261;28;20284;-84
2021/12/01 12:04:01;;;;;;;1.13;1.10;;;8.50;99.90;;;;;;5094733;28;20241;-83
2021/12/01 12:06:32;;;;;;;1.30;1.30;;;8.50;99.90;;;;;;5094643;28;20222;-85
2021/12/01 12:08:59;;;;;;;1.97;1.40;;;8.50;99.90;;;;;;5080167;28;20492;-84
2021/12/01 12:11:38;;;;;;;1.93;1.50;;;8.50;99.90;;;;;;5098006;28;20215;-83
2021/12/01 12:14:12;;;;;;;1.63;1.53;;;8.60;99.90;;;;;;5091893;28;20688;-84
2021/12/01 12:16:40;;;;;;;1.17;1.10;;;8.50;99.90;;;;;;5094041;28;20197;-84
2021/12/01 12:19:06;;;;;;;1.90;1.40;;;8.50;99.90;;;;;;5096373;28;20275;-85
2021/12/01 12:21:51;;;;;;;1.27;1.20;;;8.60;99.90;;;;;;5109496;28;20738;-84
2021/12/01 12:24:21;;;;;;;1.93;1.13;;;8.50;99.90;;;;;;5095092;28;20331;-85
2021/12/01 12:26:49;;;;;;;1.70;1.20;;;8.50;99.90;;;;;;5093599;28;20289;-85
2021/12/01 12:29:22;;;;;;;2.80;1.33;;;8.60;99.90;;;;;;5096827;28;20193;-84
2021/12/01 12:31:50;;;;;;;1.40;1.30;;;8.60;99.90;;;;;;5091778;28;20247;-84
2021/12/01 12:34:24;;;;;;;1.97;1.30;;;8.60;99.90;;;;;;5076160;28;20242;-85
2021/12/01 12:37:00;;;;;;;2.33;1.27;;;8.60;99.90;;;;;;5097521;28;20194;-85
2021/12/01 12:39:32;;;;;;;2.03;1.10;;;8.60;99.90;;;;;;5095813;28;20736;-85
2021/12/01 12:42:00;;;;;;;2.10;0.97;;;8.50;99.90;;;;;;5092100;28;20222;-85
2021/12/01 12:44:35;;;;;;;1.10;1.10;;;8.60;99.90;;;;;;5080292;28;20206;-85
2021/12/01 12:47:10;;;;;;;0.90;0.90;;;8.50;99.90;;;;;;5079423;28;20187;-85
2021/12/01 12:49:46;;;;;;;0.97;0.97;;;8.50;99.90;;;;;;5102385;28;20190;-85
2021/12/01 12:52:27;;;;;;;0.90;0.90;;;8.60;99.90;;;;;;5105940;28;20294;-86
2021/12/01 12:55:10;;;;;;;0.97;0.97;;;8.50;99.90;;;;;;5102451;28;20225;-85
2021/12/01 12:57:53;;;;;;;2.07;1.07;;;8.60;99.90;;;;;;5091139;28;20183;-87
2021/12/01 13:00:22;;;;;;;2.17;1.30;;;8.50;99.90;;;;;;5089229;28;20715;-85
2021/12/01 13:02:48;;;;;;;1.30;1.20;;;8.60;99.90;;;;;;5101808;28;20283;-85
2021/12/01 13:05:14;;;;;;;1.60;1.30;;;8.50;99.90;;;;;;5102907;28;20189;-85
2021/12/01 13:07:47;;;;;;;1.50;1.30;;;8.50;99.90;;;;;;5086809;28;20266;-85
2021/12/01 13:10:17;;;;;;;1.20;1.20;;;8.50;99.90;;;;;;5103532;28;20191;-86
2021/12/01 13:13:01;;;;;;;1.27;1.17;;;8.50;99.90;;;;;;5097025;28;20227;-85